sensor_id;sensor_type;location;lat;lon;timestamp;pressure;altitude;pressure_sealevel;temperature;humidity
59513;BME280;45330;51.634;5.562;2023-05-24T00:00:46;102397.75;;;7.21;100.00
59513;BME280;45330;51.634;5.562;2023-05-24T00:03:12;102395.97;;;7.20;100.00
59513;BME280;45330;51.634;5.562;2023-05-24T00:05:39;102387.94;;;7.13;100.00
59513;BME280;45330;51.634;5.562;2023-05-24T00:08:05;102390.53;;;7.13;100.00
59513;BME280;45330;51.634;5.562;2023-05-24T00:10:30;102380.66;;;7.01;100.00
59513;BME280;45330;51.634;5.562;2023-05-24T00:12:56;102385.06;;;7.03;100.00
59513;BME280;45330;51.634;5.562;2023-05-24T00:15:21;102361.50;;;6.96;100.00
59513;BME280;45330;51.634;5.562;2023-05-24T00:17:46;102360.50;;;6.91;100.00
59513;BME280;45330;51.634;5.562;2023-05-24T00:20:12;102356.09;;;6.88;100.00
59513;BME280;45330;51.634;5.562;2023-05-24T00:22:39;102355.19;;;6.87;100.00
59513;BME280;45330;51.634;5.562;2023-05-24T00:25:05;102360.31;;;6.86;100.00
59513;BME280;45330;51.634;5.562;2023-05-24T00:27:31;102361.94;;;6.82;100.00
59513;BME280;45330;51.634;5.562;2023-05-24T00:29:57;102349.50;;;6.72;100.00
59513;BME280;45330;51.634;5.562;2023-05-24T00:32:22;102356.41;;;6.72;100.00
59513;BME280;45330;51.634;5.562;2023-05-24T00:34:48;102365.31;;;6.80;100.00
59513;BME280;45330;51.634;5.562;2023-05-24T00:37:13;102372.13;;;6.78;100.00
59513;BME280;45330;51.634;5.562;2023-05-24T00:39:39;102364.34;;;6.78;100.00
59513;BME280;45330;51.634;5.562;2023-05-24T00:42:04;102368.41;;;6.69;100.00
59513;BME280;45330;51.634;5.562;2023-05-24T00:44:30;102347.34;;;6.59;100.00
59513;BME280;45330;51.634;5.562;2023-05-24T00:46:56;102371.91;;;6.72;100.00
59513;BME280;45330;51.634;5.562;2023-05-24T00:49:22;102373.59;;;6.69;100.00
59513;BME280;45330;51.634;5.562;2023-05-24T00:51:48;102352.34;;;6.54;100.00
59513;BME280;45330;51.634;5.562;2023-05-24T00:54:14;102342.72;;;6.50;100.00
59513;BME280;45330;51.634;5.562;2023-05-24T00:56:43;102363.78;;;6.61;100.00
59513;BME280;45330;51.634;5.562;2023-05-24T00:59:09;102352.28;;;6.52;100.00
59513;BME280;45330;51.634;5.562;2023-05-24T01:01:34;102332.16;;;6.44;100.00
59513;BME280;45330;51.634;5.562;2023-05-24T01:04:01;102351.47;;;6.53;100.00
59513;BME280;45330;51.634;5.562;2023-05-24T01:06:27;102353.94;;;6.50;100.00
59513;BME280;45330;51.634;5.562;2023-05-24T01:14:24;102357.00;;;6.39;100.00
59513;BME280;45330;51.634;5.562;2023-05-24T01:17:25;102341.25;;;6.32;100.00
59513;BME280;45330;51.634;5.562;2023-05-24T01:20:02;102336.78;;;6.28;100.00
59513;BME280;45330;51.634;5.562;2023-05-24T01:28:15;102322.44;;;6.12;100.00
59513;BME280;45330;51.634;5.562;2023-05-24T01:30:41;102325.06;;;6.14;100.00
59513;BME280;45330;51.634;5.562;2023-05-24T01:33:07;102317.22;;;6.11;100.00
59513;BME280;45330;51.634;5.562;2023-05-24T01:35:33;102328.72;;;6.19;100.00
59513;BME280;45330;51.634;5.562;2023-05-24T01:38:04;102328.44;;;6.11;100.00
59513;BME280;45330;51.634;5.562;2023-05-24T01:40:30;102326.56;;;6.07;100.00
59513;BME280;45330;51.634;5.562;2023-05-24T01:43:26;102339.53;;;6.09;100.00
59513;BME280;45330;51.634;5.562;2023-05-24T01:46:05;102330.84;;;6.07;100.00
59513;BME280;45330;51.634;5.562;2023-05-24T01:48:53;102333.44;;;6.07;100.00
59513;BME280;45330;51.634;5.562;2023-05-24T01:51:22;102313.94;;;5.92;100.00
59513;BME280;45330;51.634;5.562;2023-05-24T01:53:49;102326.16;;;5.96;100.00
59513;BME280;45330;51.634;5.562;2023-05-24T01:56:16;102337.50;;;6.00;100.00
59513;BME280;45330;51.634;5.562;2023-05-24T01:58:48;102320.63;;;5.87;100.00
59513;BME280;45330;51.634;5.562;2023-05-24T02:01:15;102313.59;;;5.83;100.00
59513;BME280;45330;51.634;5.562;2023-05-24T02:03:40;102338.97;;;5.95;100.00
59513;BME280;45330;51.634;5.562;2023-05-24T02:06:06;102339.78;;;5.92;100.00
59513;BME280;45330;51.634;5.562;2023-05-24T02:08:32;102322.09;;;5.80;100.00
59513;BME280;45330;51.634;5.562;2023-05-24T02:10:57;102320.16;;;5.75;100.00
59513;BME280;45330;51.634;5.562;2023-05-24T02:13:23;102327.09;;;5.76;100.00
59513;BME280;45330;51.634;5.562;2023-05-24T02:15:48;102345.41;;;5.82;100.00
59513;BME280;45330;51.634;5.562;2023-05-24T02:18:14;102348.75;;;5.79;100.00
59513;BME280;45330;51.634;5.562;2023-05-24T02:20:42;102337.25;;;5.71;100.00
59513;BME280;45330;51.634;5.562;2023-05-24T02:23:08;102344.31;;;5.75;100.00
59513;BME280;45330;51.634;5.562;2023-05-24T02:25:33;102335.28;;;5.64;100.00
59513;BME280;45330;51.634;5.562;2023-05-24T02:27:59;102360.56;;;5.73;100.00
59513;BME280;45330;51.634;5.562;2023-05-24T02:30:24;102358.78;;;5.72;100.00
59513;BME280;45330;51.634;5.562;2023-05-24T02:32:50;102354.28;;;5.66;100.00
59513;BME280;45330;51.634;5.562;2023-05-24T02:35:15;102355.09;;;5.65;100.00
59513;BME280;45330;51.634;5.562;2023-05-24T02:37:41;102341.91;;;5.57;100.00
59513;BME280;45330;51.634;5.562;2023-05-24T02:40:07;102358.69;;;5.69;100.00
59513;BME280;45330;51.634;5.562;2023-05-24T02:42:32;102358.53;;;5.64;100.00
59513;BME280;45330;51.634;5.562;2023-05-24T02:44:58;102354.97;;;5.62;100.00
59513;BME280;45330;51.634;5.562;2023-05-24T02:47:23;102329.53;;;5.48;100.00
59513;BME280;45330;51.634;5.562;2023-05-24T02:49:51;102332.09;;;5.48;100.00
59513;BME280;45330;51.634;5.562;2023-05-24T02:52:16;102336.47;;;5.51;100.00
59513;BME280;45330;51.634;5.562;2023-05-24T02:54:45;102350.69;;;5.62;100.00
59513;BME280;45330;51.634;5.562;2023-05-24T02:57:11;102357.56;;;5.62;100.00
59513;BME280;45330;51.634;5.562;2023-05-24T02:59:36;102330.97;;;5.42;100.00
59513;BME280;45330;51.634;5.562;2023-05-24T03:02:02;102360.78;;;5.56;100.00
59513;BME280;45330;51.634;5.562;2023-05-24T03:04:27;102330.06;;;5.41;100.00
59513;BME280;45330;51.634;5.562;2023-05-24T03:06:53;102357.13;;;5.51;100.00
59513;BME280;45330;51.634;5.562;2023-05-24T03:09:18;102349.34;;;5.49;100.00
59513;BME280;45330;51.634;5.562;2023-05-24T03:11:43;102345.06;;;5.50;100.00
59513;BME280;45330;51.634;5.562;2023-05-24T03:14:09;102312.34;;;5.28;100.00
59513;BME280;45330;51.634;5.562;2023-05-24T03:16:35;102342.34;;;5.47;100.00
59513;BME280;45330;51.634;5.562;2023-05-24T03:19:01;102334.59;;;5.47;100.00
59513;BME280;45330;51.634;5.562;2023-05-24T03:21:27;102334.47;;;5.44;100.00
59513;BME280;45330;51.634;5.562;2023-05-24T03:23:52;102324.50;;;5.30;100.00
59513;BME280;45330;51.634;5.562;2023-05-24T03:26:18;102327.16;;;5.32;100.00
59513;BME280;45330;51.634;5.562;2023-05-24T03:28:44;102326.41;;;5.35;100.00
59513;BME280;45330;51.634;5.562;2023-05-24T03:31:10;102349.84;;;5.41;100.00
59513;BME280;45330;51.634;5.562;2023-05-24T03:33:36;102351.56;;;5.40;100.00
59513;BME280;45330;51.634;5.562;2023-05-24T03:36:02;102345.44;;;5.38;100.00
59513;BME280;45330;51.634;5.562;2023-05-24T03:38:28;102336.88;;;5.39;100.00
59513;BME280;45330;51.634;5.562;2023-05-24T03:40:54;102314.88;;;5.26;100.00
59513;BME280;45330;51.634;5.562;2023-05-24T03:43:20;102337.00;;;5.42;100.00
59513;BME280;45330;51.634;5.562;2023-05-24T03:45:45;102317.63;;;5.31;100.00
59513;BME280;45330;51.634;5.562;2023-05-24T03:48:11;102330.97;;;5.42;100.00
59513;BME280;45330;51.634;5.562;2023-05-24T03:50:37;102315.22;;;5.36;100.00
59513;BME280;45330;51.634;5.562;2023-05-24T03:53:02;102326.94;;;5.48;100.00
59513;BME280;45330;51.634;5.562;2023-05-24T03:55:28;102309.25;;;5.37;100.00
59513;BME280;45330;51.634;5.562;2023-05-24T03:57:53;102323.56;;;5.51;100.00
59513;BME280;45330;51.634;5.562;2023-05-24T04:00:18;102333.19;;;5.55;100.00
59513;BME280;45330;51.634;5.562;2023-05-24T04:02:44;102311.34;;;5.47;100.00
59513;BME280;45330;51.634;5.562;2023-05-24T04:05:10;102330.09;;;5.64;100.00
59513;BME280;45330;51.634;5.562;2023-05-24T04:07:36;102330.16;;;5.65;100.00
59513;BME280;45330;51.634;5.562;2023-05-24T04:10:06;102330.38;;;5.72;100.00
59513;BME280;45330;51.634;5.562;2023-05-24T04:12:32;102339.38;;;5.81;100.00
59513;BME280;45330;51.634;5.562;2023-05-24T04:14:58;102306.13;;;5.68;100.00
59513;BME280;45330;51.634;5.562;2023-05-24T04:17:24;102330.31;;;5.93;100.00
59513;BME280;45330;51.634;5.562;2023-05-24T04:19:50;102336.41;;;5.95;100.00
59513;BME280;45330;51.634;5.562;2023-05-24T04:22:16;102339.25;;;6.01;100.00
59513;BME280;45330;51.634;5.562;2023-05-24T04:24:45;102341.19;;;6.07;100.00
59513;BME280;45330;51.634;5.562;2023-05-24T04:27:11;102330.25;;;6.14;100.00
59513;BME280;45330;51.634;5.562;2023-05-24T04:29:38;102343.63;;;6.26;100.00
59513;BME280;45330;51.634;5.562;2023-05-24T04:32:04;102321.16;;;6.25;100.00
59513;BME280;45330;51.634;5.562;2023-05-24T04:34:30;102341.69;;;6.45;100.00
59513;BME280;45330;51.634;5.562;2023-05-24T04:36:58;102313.28;;;6.72;100.00
59513;BME280;45330;51.634;5.562;2023-05-24T04:39:24;102333.53;;;7.96;100.00
59513;BME280;45330;51.634;5.562;2023-05-24T04:41:49;102342.75;;;9.16;100.00
59513;BME280;45330;51.634;5.562;2023-05-24T04:44:17;102339.75;;;10.18;100.00
59513;BME280;45330;51.634;5.562;2023-05-24T04:46:42;102327.41;;;11.04;100.00
59513;BME280;45330;51.634;5.562;2023-05-24T04:49:08;102346.88;;;11.89;100.00
59513;BME280;45330;51.634;5.562;2023-05-24T04:51:33;102333.66;;;12.51;100.00
59513;BME280;45330;51.634;5.562;2023-05-24T04:54:05;102323.69;;;13.07;100.00
59513;BME280;45330;51.634;5.562;2023-05-24T04:56:33;102341.63;;;13.87;100.00
59513;BME280;45330;51.634;5.562;2023-05-24T04:58:59;102349.63;;;14.32;100.00
59513;BME280;45330;51.634;5.562;2023-05-24T05:01:24;102318.28;;;14.72;95.73
59513;BME280;45330;51.634;5.562;2023-05-24T05:03:50;102338.34;;;15.19;86.11
59513;BME280;45330;51.634;5.562;2023-05-24T05:06:15;102334.81;;;15.45;83.46
59513;BME280;45330;51.634;5.562;2023-05-24T05:08:40;102352.13;;;16.06;79.74
59513;BME280;45330;51.634;5.562;2023-05-24T05:11:06;102343.16;;;16.44;76.83
59513;BME280;45330;51.634;5.562;2023-05-24T05:13:31;102349.84;;;16.93;72.28
59513;BME280;45330;51.634;5.562;2023-05-24T05:15:57;102333.16;;;16.93;69.29
59513;BME280;45330;51.634;5.562;2023-05-24T05:18:22;102350.22;;;17.42;69.42
59513;BME280;45330;51.634;5.562;2023-05-24T05:20:48;102359.59;;;17.67;67.52
59513;BME280;45330;51.634;5.562;2023-05-24T05:23:13;102355.06;;;17.79;65.44
59513;BME280;45330;51.634;5.562;2023-05-24T05:25:38;102346.69;;;18.19;64.59
59513;BME280;45330;51.634;5.562;2023-05-24T05:28:04;102340.34;;;18.34;63.15
59513;BME280;45330;51.634;5.562;2023-05-24T05:30:29;102351.38;;;18.58;62.12
59513;BME280;45330;51.634;5.562;2023-05-24T05:32:55;102344.09;;;18.75;60.76
59513;BME280;45330;51.634;5.562;2023-05-24T05:35:20;102347.97;;;18.52;61.04
59513;BME280;45330;51.634;5.562;2023-05-24T05:37:46;102357.13;;;18.86;59.77
59513;BME280;45330;51.634;5.562;2023-05-24T05:40:11;102337.19;;;18.68;59.57
59513;BME280;45330;51.634;5.562;2023-05-24T05:42:36;102353.59;;;18.87;56.82
59513;BME280;45330;51.634;5.562;2023-05-24T05:45:02;102344.91;;;18.79;59.20
59513;BME280;45330;51.634;5.562;2023-05-24T05:47:27;102349.75;;;19.07;58.15
59513;BME280;45330;51.634;5.562;2023-05-24T05:49:53;102361.59;;;19.34;56.39
59513;BME280;45330;51.634;5.562;2023-05-24T05:52:18;102362.19;;;19.48;55.56
59513;BME280;45330;51.634;5.562;2023-05-24T05:54:43;102345.56;;;19.90;55.70
59513;BME280;45330;51.634;5.562;2023-05-24T05:57:09;102363.97;;;19.93;54.64
59513;BME280;45330;51.634;5.562;2023-05-24T05:59:35;102359.28;;;19.62;54.05
59513;BME280;45330;51.634;5.562;2023-05-24T06:02:02;102361.63;;;19.32;55.73
59513;BME280;45330;51.634;5.562;2023-05-24T06:04:28;102352.81;;;19.32;55.06
59513;BME280;45330;51.634;5.562;2023-05-24T06:06:53;102365.81;;;19.88;53.91
59513;BME280;45330;51.634;5.562;2023-05-24T06:09:19;102354.91;;;20.05;53.52
59513;BME280;45330;51.634;5.562;2023-05-24T06:11:44;102366.41;;;19.57;53.48
59513;BME280;45330;51.634;5.562;2023-05-24T06:14:10;102373.03;;;19.80;54.07
59513;BME280;45330;51.634;5.562;2023-05-24T06:16:36;102371.97;;;19.90;53.39
59513;BME280;45330;51.634;5.562;2023-05-24T06:19:06;102365.75;;;20.32;52.96
59513;BME280;45330;51.634;5.562;2023-05-24T06:21:31;102380.84;;;19.86;53.01
59513;BME280;45330;51.634;5.562;2023-05-24T06:23:57;102381.31;;;19.61;54.37
59513;BME280;45330;51.634;5.562;2023-05-24T06:26:24;102359.75;;;19.37;53.22
59513;BME280;45330;51.634;5.562;2023-05-24T06:28:51;102379.81;;;19.48;53.58
59513;BME280;45330;51.634;5.562;2023-05-24T06:31:16;102363.25;;;19.40;53.79
59513;BME280;45330;51.634;5.562;2023-05-24T06:33:42;102382.66;;;19.35;54.43
59513;BME280;45330;51.634;5.562;2023-05-24T06:36:08;102390.66;;;19.78;53.06
59513;BME280;45330;51.634;5.562;2023-05-24T06:38:33;102373.59;;;19.00;54.05
59513;BME280;45330;51.634;5.562;2023-05-24T06:41:00;102384.44;;;18.82;56.25
59513;BME280;45330;51.634;5.562;2023-05-24T06:43:25;102376.69;;;19.26;54.84
59513;BME280;45330;51.634;5.562;2023-05-24T06:45:50;102385.44;;;18.11;56.85
59513;BME280;45330;51.634;5.562;2023-05-24T06:48:16;102379.63;;;16.92;60.99
59513;BME280;45330;51.634;5.562;2023-05-24T06:50:41;102387.00;;;16.35;63.80
59513;BME280;45330;51.634;5.562;2023-05-24T06:53:07;102379.38;;;15.60;66.06
59513;BME280;45330;51.634;5.562;2023-05-24T06:55:33;102359.34;;;14.79;70.93
59513;BME280;45330;51.634;5.562;2023-05-24T06:57:58;102375.78;;;14.30;75.27
59513;BME280;45330;51.634;5.562;2023-05-24T07:00:24;102371.19;;;13.70;79.83
59513;BME280;45330;51.634;5.562;2023-05-24T07:02:49;102384.00;;;13.32;84.79
59513;BME280;45330;51.634;5.562;2023-05-24T07:05:14;102383.78;;;13.04;90.66
59513;BME280;45330;51.634;5.562;2023-05-24T07:07:41;102386.28;;;12.93;94.93
59513;BME280;45330;51.634;5.562;2023-05-24T07:10:08;102368.88;;;12.94;96.06
59513;BME280;45330;51.634;5.562;2023-05-24T07:12:35;102384.53;;;12.92;95.47
59513;BME280;45330;51.634;5.562;2023-05-24T07:15:01;102384.88;;;13.32;96.22
59513;BME280;45330;51.634;5.562;2023-05-24T07:17:26;102378.03;;;13.47;93.28
59513;BME280;45330;51.634;5.562;2023-05-24T07:19:52;102388.69;;;13.82;91.68
59513;BME280;45330;51.634;5.562;2023-05-24T07:22:17;102381.72;;;13.81;88.55
59513;BME280;45330;51.634;5.562;2023-05-24T07:24:42;102385.22;;;13.88;88.81
59513;BME280;45330;51.634;5.562;2023-05-24T07:27:08;102378.13;;;13.65;87.55
59513;BME280;45330;51.634;5.562;2023-05-24T07:29:34;102392.97;;;13.65;86.72
59513;BME280;45330;51.634;5.562;2023-05-24T07:31:59;102393.06;;;13.83;87.20
59513;BME280;45330;51.634;5.562;2023-05-24T07:34:25;102378.28;;;13.90;85.00
59513;BME280;45330;51.634;5.562;2023-05-24T07:36:54;102399.22;;;13.92;84.43
59513;BME280;45330;51.634;5.562;2023-05-24T07:39:20;102391.28;;;13.73;84.22
59513;BME280;45330;51.634;5.562;2023-05-24T07:41:45;102382.50;;;13.66;85.07
59513;BME280;45330;51.634;5.562;2023-05-24T07:44:12;102395.69;;;13.88;84.90
59513;BME280;45330;51.634;5.562;2023-05-24T07:46:37;102400.13;;;13.97;83.58
59513;BME280;45330;51.634;5.562;2023-05-24T07:49:03;102393.97;;;13.92;82.57
59513;BME280;45330;51.634;5.562;2023-05-24T07:51:28;102393.91;;;13.78;82.90
59513;BME280;45330;51.634;5.562;2023-05-24T07:53:53;102392.09;;;13.67;84.33
59513;BME280;45330;51.634;5.562;2023-05-24T07:56:19;102398.28;;;13.77;81.77
59513;BME280;45330;51.634;5.562;2023-05-24T07:58:45;102387.91;;;13.96;80.99
59513;BME280;45330;51.634;5.562;2023-05-24T08:01:11;102401.13;;;14.30;79.24
59513;BME280;45330;51.634;5.562;2023-05-24T08:03:37;102380.09;;;14.06;76.17
59513;BME280;45330;51.634;5.562;2023-05-24T08:06:03;102394.16;;;14.39;74.89
59513;BME280;45330;51.634;5.562;2023-05-24T08:08:29;102400.38;;;14.85;73.39
59513;BME280;45330;51.634;5.562;2023-05-24T08:10:54;102383.78;;;14.92;71.33
59513;BME280;45330;51.634;5.562;2023-05-24T08:13:20;102389.91;;;15.14;72.23
59513;BME280;45330;51.634;5.562;2023-05-24T08:15:45;102378.56;;;14.97;71.25
59513;BME280;45330;51.634;5.562;2023-05-24T08:18:10;102375.06;;;14.79;71.71
59513;BME280;45330;51.634;5.562;2023-05-24T08:20:36;102364.50;;;14.50;72.17
59513;BME280;45330;51.634;5.562;2023-05-24T08:23:02;102373.22;;;14.39;72.79
59513;BME280;45330;51.634;5.562;2023-05-24T08:25:28;102368.81;;;14.29;71.71
59513;BME280;45330;51.634;5.562;2023-05-24T08:27:53;102382.78;;;14.31;71.82
59513;BME280;45330;51.634;5.562;2023-05-24T08:30:19;102382.88;;;14.61;71.12
59513;BME280;45330;51.634;5.562;2023-05-24T08:32:45;102368.09;;;14.81;69.66
59513;BME280;45330;51.634;5.562;2023-05-24T08:35:10;102389.06;;;14.95;67.08
59513;BME280;45330;51.634;5.562;2023-05-24T08:37:36;102388.19;;;14.84;67.21
59513;BME280;45330;51.634;5.562;2023-05-24T08:40:01;102385.56;;;14.84;68.07
59513;BME280;45330;51.634;5.562;2023-05-24T08:42:29;102382.88;;;14.61;70.00
59513;BME280;45330;51.634;5.562;2023-05-24T08:45:02;102372.44;;;14.78;70.09
59513;BME280;45330;51.634;5.562;2023-05-24T08:47:29;102364.56;;;14.73;70.22
59513;BME280;45330;51.634;5.562;2023-05-24T08:49:55;102361.94;;;14.82;68.04
59513;BME280;45330;51.634;5.562;2023-05-24T08:52:21;102375.06;;;14.79;68.98
59513;BME280;45330;51.634;5.562;2023-05-24T08:54:48;102372.44;;;14.93;68.57
59513;BME280;45330;51.634;5.562;2023-05-24T08:57:14;102361.97;;;15.04;66.43
59513;BME280;45330;51.634;5.562;2023-05-24T08:59:40;102357.59;;;15.11;64.70
59513;BME280;45330;51.634;5.562;2023-05-24T09:02:08;102360.19;;;15.18;63.89
59513;BME280;45330;51.634;5.562;2023-05-24T09:04:38;102363.72;;;14.92;63.88
59513;BME280;45330;51.634;5.562;2023-05-24T09:07:05;102372.44;;;15.32;65.83
59513;BME280;45330;51.634;5.562;2023-05-24T09:09:33;102343.59;;;15.24;65.51
59513;BME280;45330;51.634;5.562;2023-05-24T09:12:01;102344.47;;;15.29;63.63
59513;BME280;45330;51.634;5.562;2023-05-24T09:14:28;102368.91;;;15.48;63.90
59513;BME280;45330;51.634;5.562;2023-05-24T09:16:54;102358.41;;;15.51;62.82
59513;BME280;45330;51.634;5.562;2023-05-24T09:19:20;102356.66;;;15.44;60.10
59513;BME280;45330;51.634;5.562;2023-05-24T09:21:47;102344.44;;;15.46;61.51
59513;BME280;45330;51.634;5.562;2023-05-24T09:24:14;102359.22;;;15.70;62.12
59513;BME280;45330;51.634;5.562;2023-05-24T09:26:39;102339.09;;;15.83;61.96
59513;BME280;45330;51.634;5.562;2023-05-24T09:29:06;102345.94;;;16.15;59.19
59513;BME280;45330;51.634;5.562;2023-05-24T09:31:35;102354.66;;;16.25;60.47
59513;BME280;45330;51.634;5.562;2023-05-24T09:34:01;102352.94;;;16.13;60.57
59513;BME280;45330;51.634;5.562;2023-05-24T09:36:27;102360.00;;;16.02;59.63
59513;BME280;45330;51.634;5.562;2023-05-24T09:39:07;102359.16;;;15.97;60.50
59513;BME280;45330;51.634;5.562;2023-05-24T09:41:36;102362.72;;;15.69;59.80
59513;BME280;45330;51.634;5.562;2023-05-24T09:44:03;102347.88;;;15.67;60.31
59513;BME280;45330;51.634;5.562;2023-05-24T09:46:34;102344.34;;;15.75;61.31
59513;BME280;45330;51.634;5.562;2023-05-24T09:49:00;102343.41;;;15.92;61.64
59513;BME280;45330;51.634;5.562;2023-05-24T09:51:28;102359.13;;;16.04;59.87
59513;BME280;45330;51.634;5.562;2023-05-24T09:53:57;102356.56;;;15.93;59.09
59513;BME280;45330;51.634;5.562;2023-05-24T09:56:25;102346.03;;;15.90;58.72
59513;BME280;45330;51.634;5.562;2023-05-24T09:58:50;102350.34;;;16.10;59.57
59513;BME280;45330;51.634;5.562;2023-05-24T10:01:16;102352.91;;;16.22;58.77
59513;BME280;45330;51.634;5.562;2023-05-24T10:03:56;102350.16;;;16.41;57.93
59513;BME280;45330;51.634;5.562;2023-05-24T10:06:22;102339.78;;;16.22;55.62
59513;BME280;45330;51.634;5.562;2023-05-24T10:08:49;102346.78;;;16.23;55.31
59513;BME280;45330;51.634;5.562;2023-05-24T10:11:15;102356.34;;;16.34;55.53
59513;BME280;45330;51.634;5.562;2023-05-24T10:13:40;102331.91;;;16.21;55.10
59513;BME280;45330;51.634;5.562;2023-05-24T10:16:06;102345.13;;;16.04;55.55
59513;BME280;45330;51.634;5.562;2023-05-24T10:18:31;102353.91;;;15.98;54.21
59513;BME280;45330;51.634;5.562;2023-05-24T10:20:58;102337.38;;;15.68;54.96
59513;BME280;45330;51.634;5.562;2023-05-24T10:23:25;102351.34;;;15.69;56.05
59513;BME280;45330;51.634;5.562;2023-05-24T10:26:04;102353.06;;;15.76;57.04
59513;BME280;45330;51.634;5.562;2023-05-24T10:28:32;102339.09;;;15.68;57.05
59513;BME280;45330;51.634;5.562;2023-05-24T10:31:09;102335.63;;;15.64;57.93
59513;BME280;45330;51.634;5.562;2023-05-24T10:33:37;102353.97;;;15.69;58.20
59513;BME280;45330;51.634;5.562;2023-05-24T10:36:05;102340.88;;;15.56;58.26
59513;BME280;45330;51.634;5.562;2023-05-24T10:38:32;102360.06;;;15.78;58.51
59513;BME280;45330;51.634;5.562;2023-05-24T10:40:58;102335.56;;;15.75;58.21
59513;BME280;45330;51.634;5.562;2023-05-24T10:43:23;102341.63;;;15.99;57.73
59513;BME280;45330;51.634;5.562;2023-05-24T10:45:50;102331.94;;;16.18;57.22
59513;BME280;45330;51.634;5.562;2023-05-24T10:50:42;102337.94;;;16.34;57.00
59513;BME280;45330;51.634;5.562;2023-05-24T10:53:16;102345.81;;;16.35;57.61
59513;BME280;45330;51.634;5.562;2023-05-24T10:58:21;102333.47;;;16.48;58.45
59513;BME280;45330;51.634;5.562;2023-05-24T11:00:50;102344.72;;;16.69;57.37
59513;BME280;45330;51.634;5.562;2023-05-24T11:03:17;102332.47;;;16.64;57.56
59513;BME280;45330;51.634;5.562;2023-05-24T11:05:50;102334.22;;;16.67;57.29
59513;BME280;45330;51.634;5.562;2023-05-24T11:08:38;102341.31;;;16.56;57.79
59513;BME280;45330;51.634;5.562;2023-05-24T11:13:35;102349.44;;;16.14;58.17
59513;BME280;45330;51.634;5.562;2023-05-24T11:16:01;102357.31;;;16.22;58.72
59513;BME280;45330;51.634;5.562;2023-05-24T11:18:26;102349.34;;;16.29;57.99
59513;BME280;45330;51.634;5.562;2023-05-24T11:20:52;102353.78;;;16.26;57.70
59513;BME280;45330;51.634;5.562;2023-05-24T11:23:18;102336.47;;;15.88;58.26
59513;BME280;45330;51.634;5.562;2023-05-24T11:25:47;102341.56;;;16.19;58.07
59513;BME280;45330;51.634;5.562;2023-05-24T11:28:13;102332.88;;;16.03;57.66
59513;BME280;45330;51.634;5.562;2023-05-24T11:30:42;102351.97;;;16.31;57.17
59513;BME280;45330;51.634;5.562;2023-05-24T11:33:22;102341.22;;;16.65;56.16
59513;BME280;45330;51.634;5.562;2023-05-24T11:35:52;102318.38;;;16.79;55.36
59513;BME280;45330;51.634;5.562;2023-05-24T11:38:19;102324.19;;;17.14;54.23
59513;BME280;45330;51.634;5.562;2023-05-24T11:40:47;102334.44;;;17.42;53.78
59513;BME280;45330;51.634;5.562;2023-05-24T11:43:18;102330.50;;;17.78;53.04
59513;BME280;45330;51.634;5.562;2023-05-24T11:45:45;102329.81;;;18.32;52.20
59513;BME280;45330;51.634;5.562;2023-05-24T11:48:13;102317.38;;;18.44;52.00
59513;BME280;45330;51.634;5.562;2023-05-24T11:50:40;102323.22;;;18.61;51.17
59513;BME280;45330;51.634;5.562;2023-05-24T11:53:08;102338.03;;;18.68;50.32
59513;BME280;45330;51.634;5.562;2023-05-24T11:55:33;102335.53;;;18.62;49.64
59513;BME280;45330;51.634;5.562;2023-05-24T11:58:00;102329.72;;;18.39;50.54
59513;BME280;45330;51.634;5.562;2023-05-24T12:00:30;102319.38;;;18.26;50.46
59513;BME280;45330;51.634;5.562;2023-05-24T12:02:56;102322.13;;;18.15;50.75
59513;BME280;45330;51.634;5.562;2023-05-24T12:05:25;102312.56;;;18.10;50.21
59513;BME280;45330;51.634;5.562;2023-05-24T12:08:20;102338.41;;;17.78;51.59
59513;BME280;45330;51.634;5.562;2023-05-24T12:10:47;102314.34;;;17.35;52.34
59513;BME280;45330;51.634;5.562;2023-05-24T12:13:21;102328.19;;;16.50;55.06
59513;BME280;45330;51.634;5.562;2023-05-24T12:15:51;102328.03;;;16.73;55.96
59513;BME280;45330;51.634;5.562;2023-05-24T12:18:20;102334.22;;;16.67;55.01
59513;BME280;45330;51.634;5.562;2023-05-24T12:20:47;102323.84;;;16.49;55.99
59513;BME280;45330;51.634;5.562;2023-05-24T12:23:13;102335.91;;;16.74;55.16
59513;BME280;45330;51.634;5.562;2023-05-24T12:25:38;102325.25;;;16.94;55.36
59513;BME280;45330;51.634;5.562;2023-05-24T12:28:04;102331.28;;;17.06;53.67
59513;BME280;45330;51.634;5.562;2023-05-24T12:30:29;102322.63;;;16.97;53.50
59513;BME280;45330;51.634;5.562;2023-05-24T12:32:55;102318.16;;;17.03;53.12
59513;BME280;45330;51.634;5.562;2023-05-24T12:35:21;102330.38;;;17.13;52.99
59513;BME280;45330;51.634;5.562;2023-05-24T12:37:48;102333.00;;;17.13;52.34
59513;BME280;45330;51.634;5.562;2023-05-24T12:40:22;102317.22;;;17.11;53.25
59513;BME280;45330;51.634;5.562;2023-05-24T12:42:53;102321.19;;;17.51;53.08
59513;BME280;45330;51.634;5.562;2023-05-24T12:45:21;102332.53;;;17.56;52.41
59513;BME280;45330;51.634;5.562;2023-05-24T12:47:52;102333.28;;;17.66;52.46
59513;BME280;45330;51.634;5.562;2023-05-24T12:50:18;102319.88;;;17.88;52.11
59513;BME280;45330;51.634;5.562;2023-05-24T12:52:44;102321.41;;;18.06;51.75
59513;BME280;45330;51.634;5.562;2023-05-24T12:55:15;102322.97;;;18.19;51.41
59513;BME280;45330;51.634;5.562;2023-05-24T12:57:44;102313.66;;;17.95;50.85
59513;BME280;45330;51.634;5.562;2023-05-24T13:00:17;102311.31;;;17.70;50.73
59513;BME280;45330;51.634;5.562;2023-05-24T13:02:44;102320.00;;;17.77;52.05
59513;BME280;45330;51.634;5.562;2023-05-24T13:05:09;102318.88;;;17.98;51.68
59513;BME280;45330;51.634;5.562;2023-05-24T13:07:35;102313.69;;;17.89;51.47